Stockholm/Arlanda

Airport
ICAO code: 
ESSA
Summary
ICAO Region: 
EUR
Territory: 
Location: 
Stockholm,
Elevation: 
137 ft
Coordinates: 
Aerial View: 
59° 39' 6.845" N, 17° 55' 6.96" E
Airport LOS: 
Parallel Runway Operation
Metar
Observation
ESSA 221150Z 25005KT CAVOK M05/M10 Q1023 NOSIG
Station
Stockholm / Arlanda
Date/Time
2022-01-22 11:50:00
Wind direction
250°
Wind speed
05 kts
Lowest cloud amount
clouds and visibility OK
Temperature
-5°C
Dew point
-10°C
Humidity
67%
QNH
1023 hPa
Weather condition
n/a

Description

International airport serving the Swedish capital.

Climatology

Humid Continental climate (Köppen climate classification Dfb) - Variable weather patterns and a large seasonal temperature variance. Summers are often warm and humid with frequent thunderstorms and winters can be very cold with frequent snowfall and persistent snow cover.

Runways

Designator Length Width Surface Rops
01R/19L 2500 45 ASP Yes/Yes
8/26 2500 45 CON Yes/Yes
01L/19R 3301 45 CON Yes/Yes

SKYbrary Partners:

Safety knowledge contributed by: